Beauval, Canada
Current Conditions -  °F | °C
As of 12:00 PM on Thursday 30 Oct 2014 (Local Time) from CYVT Reporting Station
Overcast Overcast  
Wind Chill: 17°   Ceiling: 1800
Heat Index: 28°   Visibility: 15mi
Dew Point: 25°   Wind: 14mph
Humidity: 86%   Direction: 160°SSE
Pressure: 30.4"   Gusts: NA
Location:  55.15°N, 107.62°W
Report Text: CYVT 301800Z 16012KT 15SM OVC018 M02/M04 A3040 RMK SC8 SLP322
Loading
Personal Weather Stations






























Interactive Weather Map New forecast layout! Learn more

10-Day Weather Forecast

Advertisements
Track Severe Weather on mobile